EmailTwitter


Surface observations / Quebec / CYUL (71627)

Regions: Quebec | Canada | USA | Europe | France | UK | Elsewhere
Station
Display
Info & Location for CYUL (71627) | Help decoding METAR

Weather Conditions observed on 2018/05/28 at 05:00 UTC at MONTREAL INTL A, QB (CYUL)

Sky conditions: variable clouds.

Temperature: 15.0 Celsius.

Dewpoint: 8.0 Celsius.

Relative Humidity: 63%

Winds: Southeast at 22 km/h or 12 knots.

Gust: 31 km/h or 17 knots.

Mean Sea level Pressure: 101.57 kilopascals.

Altimeter Setting (QNH): 101.56 kilopascals or 29.99 inches of mercury.

Horizontal visibility: 15.00 statute miles or 24.00 kilometers.

Coded METAR:

CYUL 280500Z 14012G17KT 15SM FEW045 FEW090 SCT120 15/08 A2999 RMK SC2AC1AC1 AC

TR SLP157=